createdAt,value
2023-01-11T00:00:39.117Z,97560.38
2023-01-11T00:03:06.543Z,97567.25
2023-01-11T00:05:40.850Z,97565.56
2023-01-11T00:08:08.220Z,97559.50
2023-01-11T00:10:34.825Z,97556.94
2023-01-11T00:13:02.005Z,97560.41
2023-01-11T00:15:28.601Z,97553.53
2023-01-11T00:17:55.172Z,97550.97
2023-01-11T00:20:21.719Z,97557.84
2023-01-11T00:22:48.267Z,97552.66
2023-01-11T00:25:14.792Z,97565.53
2023-01-11T00:27:41.300Z,97564.63
2023-01-11T00:30:08.571Z,97564.59
2023-01-11T00:32:35.075Z,97555.88
2023-01-11T00:35:01.543Z,97545.47
2023-01-11T00:37:28.076Z,97558.31
2023-01-11T00:39:54.546Z,97573.72
2023-01-11T00:42:39.672Z,97560.72
2023-01-11T00:45:25.474Z,97568.34
2023-01-11T00:47:57.548Z,97564.00
2023-01-11T00:50:25.601Z,97562.22
2023-01-11T00:52:52.109Z,97568.19
2023-01-11T00:55:18.960Z,97563.84
2023-01-11T00:57:45.541Z,97563.75
2023-01-11T01:00:12.861Z,97561.91
2023-01-11T01:02:39.714Z,97563.63
2023-01-11T01:05:06.910Z,97560.94
2023-01-11T01:07:33.487Z,97562.63
2023-01-11T01:09:59.989Z,97555.72
2023-01-11T01:12:44.900Z,97555.59
2023-01-11T01:15:11.660Z,97552.84
2023-01-11T01:17:38.267Z,97549.28
2023-01-11T01:20:05.678Z,97549.22
2023-01-11T01:22:32.279Z,97551.72
2023-01-11T01:24:58.771Z,97546.44
2023-01-11T01:27:25.755Z,97536.84
2023-01-11T01:29:52.241Z,97537.63
2023-01-11T01:32:18.788Z,97535.78
2023-01-11T01:34:45.293Z,97536.63
2023-01-11T01:37:12.001Z,97541.69
2023-01-11T01:39:38.655Z,97540.69
2023-01-11T01:42:06.216Z,97545.81
2023-01-11T01:45:18.504Z,97538.81
2023-01-11T01:47:52.540Z,97540.53
2023-01-11T01:50:48.959Z,97548.19
2023-01-11T01:53:30.680Z,97545.56
2023-01-11T01:56:00.016Z,97551.56
2023-01-11T01:58:32.905Z,97547.19
2023-01-11T02:01:19.462Z,97555.72
2023-01-11T02:03:48.069Z,97556.53
2023-01-11T02:06:14.748Z,97543.56
2023-01-11T02:08:46.323Z,97547.03
2023-01-11T02:11:29.950Z,97528.06
2023-01-11T02:14:03.782Z,97524.50
2023-01-11T02:16:30.457Z,97522.72
2023-01-11T02:18:58.169Z,97520.84
2023-01-11T02:21:56.188Z,97518.16
2023-01-11T02:24:44.459Z,97520.69
2023-01-11T02:27:24.481Z,97522.34
2023-01-11T02:30:09.508Z,97519.72
2023-01-11T02:32:57.424Z,97513.66
2023-01-11T02:35:35.338Z,97504.91
2023-01-11T02:38:38.177Z,97505.78
2023-01-11T02:41:24.496Z,97504.81
2023-01-11T02:44:32.586Z,97506.41
2023-01-11T02:47:04.859Z,97488.25
2023-01-11T02:49:48.635Z,97496.81
2023-01-11T02:52:31.259Z,97483.03
2023-01-11T02:55:00.850Z,97480.41
2023-01-11T02:57:29.688Z,97486.34
2023-01-11T02:59:58.209Z,97490.66
2023-01-11T03:02:25.430Z,97486.25
2023-01-11T03:04:52.054Z,97488.75
2023-01-11T03:07:33.968Z,97485.28
2023-01-11T03:10:39.477Z,97488.69
2023-01-11T03:13:37.039Z,97485.22
2023-01-11T03:16:09.710Z,97483.47
2023-01-11T03:18:46.978Z,97487.72
2023-01-11T03:21:44.762Z,97478.19
2023-01-11T03:24:28.579Z,97467.81
2023-01-11T03:27:05.224Z,97464.31
2023-01-11T03:30:02.231Z,97466.00
2023-01-11T03:32:37.508Z,97456.38
2023-01-11T03:35:13.270Z,97446.84
2023-01-11T03:38:04.920Z,97457.19
2023-01-11T03:40:36.823Z,97449.34
2023-01-11T03:43:13.398Z,97445.91
2023-01-11T03:45:58.321Z,97458.81
2023-01-11T03:48:34.688Z,97449.28
2023-01-11T03:51:03.243Z,97453.56
2023-01-11T03:53:33.242Z,97440.53
2023-01-11T03:56:03.065Z,97444.78
2023-01-11T03:58:29.979Z,97442.19
2023-01-11T04:00:57.201Z,97437.78
2023-01-11T04:03:26.955Z,97446.38
2023-01-11T04:05:58.041Z,97432.47
2023-01-11T04:08:24.676Z,97431.63
2023-01-11T04:10:51.357Z,97434.19
2023-01-11T04:13:17.905Z,97433.25
2023-01-11T04:15:44.436Z,97430.56
2023-01-11T04:18:11.003Z,97427.91
2023-01-11T04:20:40.139Z,97422.69
2023-01-11T04:23:08.343Z,97420.03
2023-01-11T04:25:34.995Z,97418.25
2023-01-11T04:28:01.618Z,97410.41
2023-01-11T04:30:28.110Z,97412.03
2023-01-11T04:32:57.644Z,97418.78
2023-01-11T04:35:24.171Z,97404.06
2023-01-11T04:37:57.131Z,97410.97
2023-01-11T04:40:25.078Z,97408.25
2023-01-11T04:42:51.634Z,97412.53
2023-01-11T04:45:18.191Z,97410.66
2023-01-11T04:47:53.513Z,97410.59
2023-01-11T04:50:20.167Z,97410.47
2023-01-11T04:52:46.693Z,97410.31
2023-01-11T04:55:13.293Z,97394.69
2023-01-11T04:57:39.769Z,97403.19
2023-01-11T05:00:10.959Z,97389.34
2023-01-11T05:02:38.312Z,97397.03
2023-01-11T05:05:06.605Z,97392.69
2023-01-11T05:07:33.955Z,97389.97
2023-01-11T05:10:00.464Z,97386.34
2023-01-11T05:12:27.050Z,97387.06
2023-01-11T05:14:53.638Z,97379.19
2023-01-11T05:17:20.318Z,97378.28
2023-01-11T05:19:46.774Z,97376.56
2023-01-11T05:22:13.288Z,97372.19
2023-01-11T05:24:39.873Z,97371.31
2023-01-11T05:27:06.459Z,97364.41
2023-01-11T05:29:33.016Z,97370.47
2023-01-11T05:31:59.612Z,97367.88
2023-01-11T05:34:26.196Z,97360.88
2023-01-11T05:36:52.705Z,97366.13
2023-01-11T05:39:19.249Z,97354.84
2023-01-11T05:41:45.737Z,97364.41
2023-01-11T05:44:31.548Z,97367.78
2023-01-11T05:46:58.350Z,97360.00
2023-01-11T05:49:25.041Z,97358.19
2023-01-11T05:51:51.561Z,97360.72
2023-01-11T05:54:18.074Z,97366.63
2023-01-11T05:56:44.659Z,97365.69
2023-01-11T05:59:11.348Z,97365.69
2023-01-11T06:01:38.202Z,97360.47
2023-01-11T06:04:04.873Z,97358.66
2023-01-11T06:06:32.694Z,97361.16
2023-01-11T06:08:59.232Z,97361.97
2023-01-11T06:11:25.720Z,97362.09
2023-01-11T06:13:52.458Z,97367.28
2023-01-11T06:16:20.954Z,97362.88
2023-01-11T06:18:52.994Z,97359.50
2023-01-11T06:21:20.343Z,97362.94
2023-01-11T06:23:50.682Z,97356.91
2023-01-11T06:26:19.874Z,97358.63
2023-01-11T06:28:46.769Z,97358.59
2023-01-11T06:31:16.110Z,97348.22
2023-01-11T06:33:43.581Z,97352.47
2023-01-11T06:36:12.464Z,97344.63
2023-01-11T06:38:39.160Z,97354.13
2023-01-11T06:41:08.438Z,97353.25
2023-01-11T06:43:37.318Z,97353.25
2023-01-11T06:46:04.685Z,97344.50
2023-01-11T06:48:31.294Z,97341.09
2023-01-11T06:50:58.784Z,97341.88
2023-01-11T06:53:28.798Z,97339.25
2023-01-11T06:55:57.231Z,97342.44
2023-01-11T06:58:24.748Z,97336.25
2023-01-11T07:00:52.833Z,97333.72
2023-01-11T07:03:24.129Z,97331.06
2023-01-11T07:05:52.168Z,97330.94
2023-01-11T07:08:18.705Z,97331.78
2023-01-11T07:10:46.115Z,97335.44
2023-01-11T07:13:12.929Z,97339.75
2023-01-11T07:15:39.500Z,97340.53
2023-01-11T07:18:06.091Z,97349.97
2023-01-11T07:20:32.848Z,97345.47
2023-01-11T07:23:00.445Z,97348.84
2023-01-11T07:25:28.400Z,97338.25
2023-01-11T07:28:02.406Z,97337.31
2023-01-11T07:30:31.348Z,97353.56
2023-01-11T07:32:59.511Z,97343.06
2023-01-11T07:35:28.929Z,97347.25
2023-01-11T07:37:55.860Z,97317.88
2023-01-11T07:40:22.446Z,97333.41
2023-01-11T07:43:14.291Z,97325.41
2023-01-11T07:45:46.465Z,97320.81
2023-01-11T07:48:14.964Z,97318.72
2023-01-11T07:50:44.436Z,97312.50
2023-01-11T07:53:12.233Z,97318.34
2023-01-11T07:55:39.783Z,97307.88
2023-01-11T07:58:07.393Z,97313.63
2023-01-11T08:00:34.048Z,97315.84
2023-01-11T08:03:01.113Z,97311.00
2023-01-11T08:05:27.826Z,97315.13
2023-01-11T08:07:54.284Z,97310.53
2023-01-11T08:10:20.870Z,97308.47
2023-01-11T08:13:07.822Z,97309.03
2023-01-11T08:15:36.716Z,97305.06
2023-01-11T08:18:06.474Z,97288.25
2023-01-11T08:20:33.350Z,97284.00
2023-01-11T08:23:08.167Z,97285.63
2023-01-11T08:25:34.706Z,97289.88
2023-01-11T08:28:06.260Z,97295.81
2023-01-11T08:30:33.183Z,97292.06
2023-01-11T08:33:01.058Z,97287.81
2023-01-11T08:35:27.630Z,97293.75
2023-01-11T08:37:54.186Z,97297.94
2023-01-11T08:40:23.702Z,97293.28
2023-01-11T08:42:57.031Z,97296.19
2023-01-11T08:45:24.054Z,97292.50
2023-01-11T08:47:51.884Z,97291.38
2023-01-11T08:50:19.289Z,97293.38
2023-01-11T08:52:47.006Z,97292.41
2023-01-11T08:55:13.570Z,97289.06
2023-01-11T08:57:40.036Z,97292.66
2023-01-11T09:00:08.712Z,97281.91
2023-01-11T09:02:35.254Z,97284.66
2023-01-11T09:05:01.963Z,97287.91
2023-01-11T09:07:28.521Z,97285.41
2023-01-11T09:09:55.007Z,97283.88
2023-01-11T09:12:21.589Z,97284.09
2023-01-11T09:14:48.166Z,97289.47
2023-01-11T09:17:14.666Z,97287.94
2023-01-11T09:19:41.164Z,97294.78
2023-01-11T09:22:07.631Z,97287.28
2023-01-11T09:24:34.157Z,97280.44
2023-01-11T09:27:01.192Z,97282.00
2023-01-11T09:29:27.806Z,97270.44
2023-01-11T09:31:54.292Z,97276.47
2023-01-11T09:34:21.183Z,97276.50
2023-01-11T09:36:48.916Z,97272.91
2023-01-11T09:39:18.832Z,97271.75
2023-01-11T09:42:06.188Z,97261.72
2023-01-11T09:44:36.139Z,97260.19
2023-01-11T09:47:17.395Z,97250.06
2023-01-11T09:49:50.915Z,97254.31
2023-01-11T09:52:29.051Z,97255.00
2023-01-11T09:54:58.787Z,97252.38
2023-01-11T09:57:37.569Z,97252.56
2023-01-11T10:00:23.970Z,97243.00
2023-01-11T10:02:59.928Z,97238.00
2023-01-11T10:06:02.909Z,97237.34
2023-01-11T10:18:22.406Z,97218.38
2023-01-11T10:18:28.856Z,97201.56
2023-01-11T10:20:40.864Z,97213.56
2023-01-11T10:23:14.962Z,97201.16
2023-01-11T10:25:51.571Z,97194.66
2023-01-11T10:28:31.168Z,97191.53
2023-01-11T10:30:58.062Z,97189.56
2023-01-11T10:33:49.797Z,97198.69
2023-01-11T10:36:50.408Z,97191.94
2023-01-11T10:39:45.477Z,97194.47
2023-01-11T10:42:25.062Z,97186.59
2023-01-11T10:45:00.365Z,97183.97
2023-01-11T10:47:39.191Z,97181.94
2023-01-11T10:50:35.460Z,97176.50
2023-01-11T10:53:15.671Z,97170.44
2023-01-11T10:55:52.814Z,97164.34
2023-01-11T10:58:48.978Z,97173.06
2023-01-11T11:01:36.241Z,97171.69
2023-01-11T11:04:21.068Z,97173.75
2023-01-11T11:06:59.667Z,97176.66
2023-01-11T11:09:59.233Z,97178.25
2023-01-11T11:12:29.804Z,97176.72
2023-01-11T11:15:08.061Z,97173.94
2023-01-11T11:17:40.360Z,97171.13
2023-01-11T11:20:25.694Z,97165.38
2023-01-11T11:22:54.866Z,97170.88
2023-01-11T11:25:43.404Z,97162.75
2023-01-11T11:28:31.179Z,97159.91
2023-01-11T11:31:01.157Z,97160.16
2023-01-11T11:33:37.285Z,97145.84
2023-01-11T11:36:07.427Z,97149.69
2023-01-11T11:38:35.345Z,97152.78
2023-01-11T11:41:08.814Z,97146.25
2023-01-11T11:43:37.559Z,97139.16
2023-01-11T11:46:19.812Z,97124.25
2023-01-11T11:49:13.191Z,97116.22
2023-01-11T11:51:41.240Z,97115.38
2023-01-11T11:54:25.851Z,97108.72
2023-01-11T11:56:54.018Z,97101.78
2023-01-11T11:59:24.162Z,97098.28
2023-01-11T12:02:01.434Z,97101.28
2023-01-11T12:04:48.585Z,97098.13
2023-01-11T12:07:24.324Z,97088.31
2023-01-11T12:10:02.662Z,97097.44
2023-01-11T12:12:32.302Z,97092.56
2023-01-11T12:15:20.359Z,97087.25
2023-01-11T12:17:48.278Z,97090.63
2023-01-11T12:20:32.105Z,97083.53
2023-01-11T12:23:24.298Z,97073.69
2023-01-11T12:26:06.073Z,97074.25
2023-01-11T12:29:09.167Z,97066.72
2023-01-11T12:32:10.362Z,97071.19
2023-01-11T12:34:45.602Z,97062.13
2023-01-11T12:37:48.955Z,97064.78
2023-01-11T12:40:28.455Z,97048.34
2023-01-11T12:43:03.048Z,97051.78
2023-01-11T12:45:55.513Z,97045.53
2023-01-11T12:48:50.243Z,97041.13
2023-01-11T12:51:44.731Z,97037.06
2023-01-11T12:54:25.939Z,97029.53
2023-01-11T12:57:17.249Z,97035.25
2023-01-11T13:00:23.710Z,97030.25
2023-01-11T13:03:21.392Z,97032.41
2023-01-11T13:06:12.422Z,97024.75
2023-01-11T13:09:08.175Z,97024.13
2023-01-11T13:12:10.259Z,97020.94
2023-01-11T13:14:39.617Z,97014.47
2023-01-11T13:17:27.517Z,97017.66
2023-01-11T13:20:11.732Z,97020.09
2023-01-11T13:22:49.216Z,97020.19
2023-01-11T13:25:22.694Z,97014.38
2023-01-11T13:27:51.493Z,97022.63
2023-01-11T13:30:20.177Z,97007.16
2023-01-11T13:32:58.137Z,97017.19
2023-01-11T13:35:41.658Z,97015.69
2023-01-11T13:38:35.434Z,97011.47
2023-01-11T13:41:15.555Z,97011.56
2023-01-11T13:43:41.884Z,96999.66
2023-01-11T13:46:27.337Z,97009.56
2023-01-11T13:49:24.695Z,97008.06
2023-01-11T13:52:11.474Z,97000.47
2023-01-11T13:54:56.684Z,97002.41
2023-01-11T13:57:34.041Z,96996.59
2023-01-11T14:00:16.732Z,96992.41
2023-01-11T14:02:49.564Z,96999.50
2023-01-11T14:05:21.516Z,97001.38
2023-01-11T14:08:00.742Z,96999.72
2023-01-11T14:10:54.672Z,97006.59
2023-01-11T14:14:13.986Z,97009.22
2023-01-11T14:16:49.585Z,97005.97
2023-01-11T14:19:30.806Z,97012.88
2023-01-11T14:22:12.901Z,97000.72
2023-01-11T14:24:47.479Z,97005.00
2023-01-11T14:27:35.678Z,97006.91
2023-01-11T14:30:39.551Z,97014.38
2023-01-11T14:33:40.043Z,97018.00
2023-01-11T14:36:12.522Z,97020.78
2023-01-11T14:39:11.901Z,97030.63
2023-01-11T14:42:07.963Z,97017.09
2023-01-11T14:45:13.489Z,97015.00
2023-01-11T14:47:42.758Z,97013.50
2023-01-11T14:50:33.468Z,97016.19
2023-01-11T14:53:03.258Z,97007.66
2023-01-11T14:55:35.665Z,97017.31
2023-01-11T14:58:24.217Z,97015.78
2023-01-11T15:00:56.582Z,97017.72
2023-01-11T15:03:23.065Z,97020.63
2023-01-11T15:06:00.553Z,97026.78
2023-01-11T15:08:34.775Z,97027.03
2023-01-11T15:11:05.347Z,97018.66
2023-01-11T15:13:37.287Z,97018.84
2023-01-11T15:16:38.180Z,97022.56
2023-01-11T15:19:07.907Z,97026.53
2023-01-11T15:21:47.339Z,97029.28
2023-01-11T15:24:23.922Z,97016.34
2023-01-11T15:26:50.947Z,97033.94
2023-01-11T15:29:42.127Z,97032.22
2023-01-11T15:32:25.094Z,97038.47
2023-01-11T15:34:52.175Z,97029.94
2023-01-11T15:37:45.000Z,97033.66
2023-01-11T15:40:16.633Z,97038.13
2023-01-11T15:43:04.488Z,97042.50
2023-01-11T15:46:03.314Z,97046.03
2023-01-11T15:53:10.459Z,97054.97
2023-01-11T16:03:40.971Z,97074.47
2023-01-11T16:06:47.760Z,97079.97
2023-01-11T16:09:45.562Z,97083.56
2023-01-11T16:12:58.314Z,97084.59
2023-01-11T16:15:30.432Z,97089.19
2023-01-11T16:18:32.927Z,97091.81
2023-01-11T16:21:12.903Z,97098.13
2023-01-11T16:23:45.170Z,97087.81
2023-01-11T16:26:17.145Z,97100.13
2023-01-11T16:28:52.611Z,97101.88
2023-01-11T16:31:19.622Z,97094.22
2023-01-11T16:33:49.597Z,97102.13
2023-01-11T16:36:22.190Z,97099.59
2023-01-11T16:39:06.960Z,97102.13
2023-01-11T16:42:01.800Z,97103.97
2023-01-11T16:44:41.707Z,97109.19
2023-01-11T16:47:16.960Z,97109.38
2023-01-11T16:49:49.105Z,97104.13
2023-01-11T16:52:28.039Z,97123.34
2023-01-11T16:54:57.479Z,97123.44
2023-01-11T16:57:31.016Z,97123.34
2023-01-11T17:00:03.148Z,97123.34
2023-01-11T17:02:32.841Z,97132.97
2023-01-11T17:04:59.456Z,97131.44
2023-01-11T17:07:30.193Z,97140.94
2023-01-11T17:10:15.039Z,97137.50
2023-01-11T17:12:46.412Z,97138.34
2023-01-11T17:16:00.584Z,97140.03
2023-01-11T17:18:27.233Z,97151.34
2023-01-11T17:20:54.212Z,97147.72
2023-01-11T17:23:20.765Z,97161.34
2023-01-11T17:25:57.508Z,97152.25
2023-01-11T17:28:24.655Z,97153.41
2023-01-11T17:30:55.459Z,97156.16
2023-01-11T17:33:32.854Z,97161.00
2023-01-11T17:36:00.550Z,97165.06
2023-01-11T17:38:34.295Z,97163.91
2023-01-11T17:41:30.481Z,97164.50
2023-01-11T17:44:15.745Z,97172.91
2023-01-11T17:46:46.217Z,97176.91
2023-01-11T17:49:23.955Z,97174.91
2023-01-11T17:51:50.611Z,97182.66
2023-01-11T17:54:22.223Z,97189.50
2023-01-11T17:56:58.255Z,97195.44
2023-01-11T17:59:27.358Z,97196.19
2023-01-11T18:02:00.306Z,97195.09
2023-01-11T18:04:27.921Z,97202.84
2023-01-11T18:07:05.976Z,97209.66
2023-01-11T18:09:37.371Z,97204.16
2023-01-11T18:12:11.823Z,97214.47
2023-01-11T18:14:51.568Z,97214.53
2023-01-11T18:17:35.070Z,97223.09
2023-01-11T18:20:11.089Z,97229.34
2023-01-11T18:22:43.384Z,97227.56
2023-01-11T18:25:24.583Z,97234.66
2023-01-11T18:27:51.680Z,97237.19
2023-01-11T18:30:33.243Z,97245.84
2023-01-11T18:33:03.898Z,97244.97
2023-01-11T18:35:31.079Z,97244.22
2023-01-11T18:37:57.587Z,97244.13
2023-01-11T18:40:24.135Z,97242.34
2023-01-11T18:42:56.772Z,97242.25
2023-01-11T18:45:26.022Z,97245.84
2023-01-11T18:47:52.788Z,97246.56
2023-01-11T18:50:19.799Z,97254.34
2023-01-11T18:52:46.709Z,97257.34
2023-01-11T18:55:14.583Z,97256.47
2023-01-11T18:57:42.367Z,97267.72
2023-01-11T19:00:14.104Z,97276.44
2023-01-11T19:02:43.248Z,97272.97
2023-01-11T19:05:15.821Z,97280.06
2023-01-11T19:07:42.394Z,97281.16
2023-01-11T19:10:10.859Z,97288.34
2023-01-11T19:12:37.449Z,97288.47
2023-01-11T19:15:04.193Z,97289.41
2023-01-11T19:17:32.218Z,97292.97
2023-01-11T19:19:58.871Z,97295.59
2023-01-11T19:22:26.726Z,97299.13
2023-01-11T19:24:54.139Z,97304.28
2023-01-11T19:27:21.111Z,97299.97
2023-01-11T19:29:47.682Z,97307.72
2023-01-11T19:32:15.765Z,97322.53
2023-01-11T19:34:42.793Z,97320.84
2023-01-11T19:37:09.378Z,97327.84
2023-01-11T19:39:36.335Z,97335.72
2023-01-11T19:42:03.280Z,97339.94
2023-01-11T19:44:32.437Z,97341.78
2023-01-11T19:47:10.784Z,97331.47
2023-01-11T19:49:39.523Z,97344.56
2023-01-11T19:52:12.961Z,97348.09
2023-01-11T19:54:43.593Z,97353.34
2023-01-11T19:57:14.130Z,97356.75
2023-01-11T19:59:41.153Z,97366.34
2023-01-11T20:02:08.044Z,97366.44
2023-01-11T20:04:34.540Z,97373.38
2023-01-11T20:07:01.042Z,97358.50
2023-01-11T20:09:27.586Z,97360.13
2023-01-11T20:11:55.529Z,97368.94
2023-01-11T20:14:22.080Z,97379.22
2023-01-11T20:16:48.658Z,97379.41
2023-01-11T20:19:15.429Z,97377.84
2023-01-11T20:21:42.184Z,97376.00
2023-01-11T20:24:12.805Z,97376.00
2023-01-11T20:26:39.651Z,97378.69
2023-01-11T20:29:06.552Z,97390.94
2023-01-11T20:31:35.396Z,97385.78
2023-01-11T20:34:07.074Z,97379.69
2023-01-11T20:36:33.568Z,97390.00
2023-01-11T20:39:00.093Z,97391.88
2023-01-11T20:41:46.024Z,97403.19
2023-01-11T20:44:15.996Z,97413.56
2023-01-11T20:46:43.262Z,97417.72
2023-01-11T20:49:09.853Z,97416.72
2023-01-11T20:51:36.908Z,97421.22
2023-01-11T20:54:04.854Z,97414.44
2023-01-11T20:56:33.118Z,97417.91
2023-01-11T20:59:00.884Z,97415.13
2023-01-11T21:01:28.013Z,97421.34
2023-01-11T21:03:57.323Z,97413.28
2023-01-11T21:06:23.832Z,97411.50
2023-01-11T21:08:54.241Z,97414.97
2023-01-11T21:11:20.752Z,97409.81
2023-01-11T21:13:47.314Z,97409.88
2023-01-11T21:16:16.205Z,97411.97
2023-01-11T21:18:44.023Z,97425.28
2023-01-11T21:21:19.084Z,97428.84
2023-01-11T21:23:46.730Z,97433.53
2023-01-11T21:26:17.649Z,97436.97
2023-01-11T21:28:45.012Z,97437.97
2023-01-11T21:31:12.624Z,97429.50
2023-01-11T21:33:42.932Z,97437.50
2023-01-11T21:36:15.901Z,97433.28
2023-01-11T21:38:43.541Z,97434.44
2023-01-11T21:41:14.564Z,97439.81
2023-01-11T21:43:42.603Z,97436.50
2023-01-11T21:46:10.170Z,97442.56
2023-01-11T21:48:37.585Z,97442.44
2023-01-11T21:51:08.295Z,97455.72
2023-01-11T21:53:38.232Z,97456.84
2023-01-11T21:56:07.228Z,97442.91
2023-01-11T21:58:35.024Z,97457.06
2023-01-11T22:01:11.998Z,97464.41
2023-01-11T22:03:38.800Z,97469.09
2023-01-11T22:06:05.675Z,97463.06
2023-01-11T22:08:34.856Z,97463.00
2023-01-11T22:11:04.665Z,97470.63
2023-01-11T22:13:32.764Z,97467.94
2023-01-11T22:16:01.567Z,97468.03
2023-01-11T22:18:29.043Z,97478.00
2023-01-11T22:20:55.954Z,97475.75
2023-01-11T22:23:23.328Z,97480.19
2023-01-11T22:25:49.894Z,97468.09
2023-01-11T22:28:17.327Z,97475.09
2023-01-11T22:30:43.891Z,97474.25
2023-01-11T22:33:10.391Z,97477.88
2023-01-11T22:35:36.937Z,97482.03
2023-01-11T22:38:03.537Z,97484.66
2023-01-11T22:40:30.053Z,97494.88
2023-01-11T22:42:56.588Z,97495.09
2023-01-11T22:45:23.128Z,97493.75
2023-01-11T22:47:49.670Z,97478.28
2023-01-11T22:50:16.391Z,97491.41
2023-01-11T22:52:42.970Z,97494.75
2023-01-11T22:55:10.114Z,97485.19
2023-01-11T22:57:36.656Z,97476.44
2023-01-11T23:00:05.306Z,97481.81
2023-01-11T23:02:31.926Z,97478.41
2023-01-11T23:04:58.411Z,97480.28
2023-01-11T23:07:25.010Z,97474.25
2023-01-11T23:09:51.541Z,97483.91
2023-01-11T23:12:36.388Z,97482.38
2023-01-11T23:15:04.232Z,97489.31
2023-01-11T23:17:30.742Z,97486.34
2023-01-11T23:19:57.232Z,97487.53
2023-01-11T23:22:23.712Z,97488.44
2023-01-11T23:24:50.211Z,97489.38
2023-01-11T23:27:16.773Z,97490.94
2023-01-11T23:29:43.277Z,97488.25
2023-01-11T23:32:09.824Z,97490.22
2023-01-11T23:34:36.493Z,97497.22
2023-01-11T23:37:03.299Z,97493.84
2023-01-11T23:39:30.659Z,97496.47
2023-01-11T23:42:18.049Z,97494.00
2023-01-11T23:44:46.842Z,97494.91
2023-01-11T23:47:22.188Z,97495.97
2023-01-11T23:49:53.537Z,97499.63
2023-01-11T23:52:22.008Z,97501.31
2023-01-11T23:54:49.035Z,97503.94
2023-01-11T23:57:16.873Z,97508.34
2023-01-11T23:59:43.973Z,97515.47
